Time;durP1;ratioP1;P1;durP2;ratioP2;P2;SDS_P1;SDS_P2;PMS_P1;PMS_P2;Temp;Humidity;BMP_temperature;BMP_pressure;BME280_temperature;BME280_humidity;BME280_pressure;Samples;Min_cycle;Max_cycle;Signal;HPM_P1;HPM_P2
2021/11/03 00:01:57;;;;;;;;;;;20.70;47.00;;;;;;474355;251;1236;-45
2021/11/03 00:03:58;;;;;;;;;;;20.70;47.00;;;;;;474592;251;1091;-46
2021/11/03 00:05:59;;;;;;;;;;;20.60;47.00;;;;;;474564;251;1330;-46
2021/11/03 00:08:01;;;;;;;;;;;20.70;47.00;;;;;;474185;251;1381;-46
2021/11/03 00:10:02;;;;;;;;;;;20.70;47.00;;;;;;474152;251;1126;-46
2021/11/03 00:12:03;;;;;;;;;;;20.60;47.00;;;;;;474289;251;1253;-45
2021/11/03 00:14:05;;;;;;;;;;;20.60;47.10;;;;;;474185;251;1083;-46
2021/11/03 00:16:06;;;;;;;;;;;20.60;47.10;;;;;;474179;251;2134;-46
2021/11/03 00:18:07;;;;;;;;;;;20.60;47.10;;;;;;474170;251;1298;-46
2021/11/03 00:20:09;;;;;;;;;;;20.60;47.00;;;;;;474634;251;1049;-46
2021/11/03 00:22:10;;;;;;;;;;;20.60;47.10;;;;;;474545;251;1320;-45
2021/11/03 00:24:11;;;;;;;;;;;20.60;47.10;;;;;;474194;251;1221;-46
2021/11/03 00:26:12;;;;;;;;;;;20.60;47.00;;;;;;474256;251;1215;-46
2021/11/03 00:28:14;;;;;;;;;;;20.60;47.00;;;;;;474598;251;1208;-46
2021/11/03 00:30:15;;;;;;;;;;;20.60;47.10;;;;;;474247;251;1036;-46
2021/11/03 00:32:17;;;;;;;;;;;20.60;47.10;;;;;;474359;251;1206;-46
2021/11/03 00:34:18;;;;;;;;;;;20.60;47.10;;;;;;474169;251;1179;-46
2021/11/03 00:36:19;;;;;;;;;;;20.60;47.00;;;;;;474281;247;2183;-46
2021/11/03 00:38:20;;;;;;;;;;;20.60;47.10;;;;;;474247;251;1204;-46
2021/11/03 00:40:22;;;;;;;;;;;20.60;47.00;;;;;;474285;251;1035;-46
2021/11/03 00:42:23;;;;;;;;;;;20.60;47.10;;;;;;474178;251;1213;-46
2021/11/03 00:44:24;;;;;;;;;;;20.60;47.10;;;;;;474556;251;1111;-46
2021/11/03 00:46:26;;;;;;;;;;;20.60;47.10;;;;;;474165;251;1457;-46
2021/11/03 00:48:27;;;;;;;;;;;20.60;47.00;;;;;;474704;251;1125;-46
2021/11/03 00:50:28;;;;;;;;;;;20.60;46.90;;;;;;474648;251;1217;-46
2021/11/03 00:52:30;;;;;;;;;;;20.60;47.00;;;;;;474151;251;1149;-45
2021/11/03 00:54:31;;;;;;;;;;;20.60;46.90;;;;;;474163;251;1056;-46
2021/11/03 00:56:32;;;;;;;;;;;20.60;47.00;;;;;;474529;251;2142;-46
2021/11/03 00:58:34;;;;;;;;;;;20.60;47.00;;;;;;474192;251;1220;-46
2021/11/03 01:00:35;;;;;;;;;;;20.60;47.00;;;;;;474561;251;1177;-46
2021/11/03 01:02:36;;;;;;;;;;;20.60;46.90;;;;;;474232;251;1070;-45
2021/11/03 01:04:38;;;;;;;;;;;20.60;47.00;;;;;;474579;251;1069;-46
2021/11/03 01:06:39;;;;;;;;;;;20.60;47.00;;;;;;474189;251;1131;-46
2021/11/03 01:08:41;;;;;;;;;;;20.60;46.90;;;;;;474229;251;1313;-46
2021/11/03 01:10:42;;;;;;;;;;;20.70;46.90;;;;;;474451;251;1165;-46
2021/11/03 01:12:44;;;;;;;;;;;20.70;46.90;;;;;;474374;251;1261;-46
2021/11/03 01:14:45;;;;;;;;;;;20.60;46.90;;;;;;474672;251;1202;-46
2021/11/03 01:16:46;;;;;;;;;;;20.60;46.90;;;;;;474102;251;2204;-46
2021/11/03 01:18:53;;;;;;;;;;;20.60;46.80;;;;;;474264;251;1292;-46
2021/11/03 01:20:49;;;;;;;;;;;20.60;46.80;;;;;;474213;251;2239;-46
2021/11/03 01:22:50;;;;;;;;;;;20.60;46.90;;;;;;474162;251;1217;-46
2021/11/03 01:24:52;;;;;;;;;;;20.60;46.80;;;;;;474475;251;1091;-46
2021/11/03 01:26:53;;;;;;;;;;;20.60;46.80;;;;;;474179;251;1239;-46
2021/11/03 01:28:54;;;;;;;;;;;20.60;46.90;;;;;;474258;251;1161;-46
2021/11/03 01:30:55;;;;;;;;;;;20.60;46.90;;;;;;474505;251;1463;-46
2021/11/03 01:32:57;;;;;;;;;;;20.60;46.90;;;;;;474189;251;1144;-46
2021/11/03 01:34:58;;;;;;;;;;;20.60;46.90;;;;;;474222;251;1073;-46
2021/11/03 01:36:59;;;;;;;;;;;20.60;46.90;;;;;;474304;251;2205;-45
2021/11/03 01:39:01;;;;;;;;;;;20.50;46.90;;;;;;474278;251;1100;-46
2021/11/03 01:41:02;;;;;;;;;;;20.50;47.00;;;;;;474154;251;1190;-46
2021/11/03 01:43:03;;;;;;;;;;;20.50;46.90;;;;;;474362;251;1227;-45
2021/11/03 01:45:05;;;;;;;;;;;20.60;47.00;;;;;;474454;251;1040;-46
2021/11/03 01:47:06;;;;;;;;;;;20.60;47.00;;;;;;474403;251;1335;-46
2021/11/03 01:49:07;;;;;;;;;;;20.60;46.90;;;;;;474693;251;1018;-46
2021/11/03 01:51:09;;;;;;;;;;;20.50;47.00;;;;;;474239;251;1469;-46
2021/11/03 01:53:10;;;;;;;;;;;20.50;46.90;;;;;;474172;251;1206;-46
2021/11/03 01:55:11;;;;;;;;;;;20.50;47.00;;;;;;474357;251;1237;-46
2021/11/03 01:57:13;;;;;;;;;;;20.50;47.00;;;;;;474159;251;2153;-46
2021/11/03 01:59:14;;;;;;;;;;;20.60;46.90;;;;;;474211;251;1504;-46
2021/11/03 02:01:16;;;;;;;;;;;20.60;46.90;;;;;;474586;251;1259;-45
2021/11/03 02:03:17;;;;;;;;;;;20.60;46.80;;;;;;474608;251;1133;-46
2021/11/03 02:05:18;;;;;;;;;;;20.60;46.80;;;;;;474392;251;997;-46
2021/11/03 02:07:19;;;;;;;;;;;20.50;46.80;;;;;;474161;251;1304;-46
2021/11/03 02:09:20;;;;;;;;;;;20.60;47.00;;;;;;474616;251;1146;-46
2021/11/03 02:11:22;;;;;;;;;;;20.60;46.90;;;;;;474296;251;1170;-45
2021/11/03 02:13:23;;;;;;;;;;;20.60;46.80;;;;;;474193;251;1301;-46
2021/11/03 02:15:24;;;;;;;;;;;20.60;46.80;;;;;;474493;251;1256;-46
2021/11/03 02:17:26;;;;;;;;;;;20.60;46.90;;;;;;474197;251;2205;-46
2021/11/03 02:19:27;;;;;;;;;;;20.50;46.90;;;;;;474297;251;1171;-46
2021/11/03 02:21:28;;;;;;;;;;;20.50;46.80;;;;;;474574;251;1201;-46
2021/11/03 02:23:30;;;;;;;;;;;20.60;46.90;;;;;;474240;251;1175;-46
2021/11/03 02:25:31;;;;;;;;;;;20.60;46.90;;;;;;474194;251;1369;-46
2021/11/03 02:27:32;;;;;;;;;;;20.50;46.80;;;;;;474193;251;1159;-46
2021/11/03 02:29:34;;;;;;;;;;;20.60;46.90;;;;;;474351;251;1172;-46
2021/11/03 02:31:35;;;;;;;;;;;20.50;46.80;;;;;;474630;251;1403;-46
2021/11/03 02:33:36;;;;;;;;;;;20.50;47.00;;;;;;474359;251;1229;-45
2021/11/03 02:35:38;;;;;;;;;;;20.50;46.90;;;;;;474216;251;1476;-45
2021/11/03 02:37:40;;;;;;;;;;;20.60;46.80;;;;;;474189;251;2189;-46
2021/11/03 02:39:41;;;;;;;;;;;20.50;46.90;;;;;;474504;251;2125;-46
2021/11/03 02:41:42;;;;;;;;;;;20.60;46.80;;;;;;474585;251;1269;-46
2021/11/03 02:43:43;;;;;;;;;;;20.60;46.80;;;;;;474291;251;1224;-46
2021/11/03 02:45:45;;;;;;;;;;;20.50;46.80;;;;;;474343;251;1460;-45
2021/11/03 02:47:46;;;;;;;;;;;20.50;46.90;;;;;;474159;251;1434;-46
2021/11/03 02:49:47;;;;;;;;;;;20.50;46.90;;;;;;474589;251;1080;-46
2021/11/03 02:51:48;;;;;;;;;;;20.60;46.90;;;;;;474628;251;1286;-46
2021/11/03 02:53:50;;;;;;;;;;;20.50;46.80;;;;;;474504;251;1101;-46
2021/11/03 02:55:51;;;;;;;;;;;20.60;46.90;;;;;;474660;246;1337;-46
2021/11/03 02:57:52;;;;;;;;;;;20.50;46.90;;;;;;474594;251;2200;-46
2021/11/03 02:59:54;;;;;;;;;;;20.50;46.90;;;;;;474280;251;1236;-46
2021/11/03 03:01:55;;;;;;;;;;;20.60;46.80;;;;;;474608;251;1297;-46
2021/11/03 03:03:56;;;;;;;;;;;20.50;46.60;;;;;;474677;251;1175;-46
2021/11/03 03:05:58;;;;;;;;;;;20.60;46.70;;;;;;474249;251;1337;-46
2021/11/03 03:07:59;;;;;;;;;;;20.50;46.70;;;;;;474530;251;1134;-46
2021/11/03 03:10:01;;;;;;;;;;;20.60;46.80;;;;;;474644;251;1064;-45
2021/11/03 03:12:03;;;;;;;;;;;20.50;46.70;;;;;;474521;251;1569;-46
2021/11/03 03:14:04;;;;;;;;;;;20.50;46.70;;;;;;474119;251;1299;-46
2021/11/03 03:16:05;;;;;;;;;;;20.50;46.70;;;;;;474539;251;1350;-46
2021/11/03 03:18:07;;;;;;;;;;;20.50;46.70;;;;;;474206;251;2204;-45
2021/11/03 03:20:08;;;;;;;;;;;20.50;46.70;;;;;;474229;251;1085;-46
2021/11/03 03:22:09;;;;;;;;;;;20.50;46.70;;;;;;474565;251;1172;-46
2021/11/03 03:24:11;;;;;;;;;;;20.60;46.80;;;;;;474231;251;1071;-46
2021/11/03 03:26:14;;;;;;;;;;;20.60;46.70;;;;;;474388;251;1286;-45
2021/11/03 03:28:17;;;;;;;;;;;20.60;46.70;;;;;;474694;251;1085;-45
2021/11/03 03:30:17;;;;;;;;;;;20.60;46.60;;;;;;474204;251;2417;-46
2021/11/03 03:32:18;;;;;;;;;;;20.60;46.60;;;;;;474381;251;1136;-46
2021/11/03 03:34:19;;;;;;;;;;;20.50;46.60;;;;;;474678;251;1050;-46
2021/11/03 03:36:21;;;;;;;;;;;20.50;46.60;;;;;;474528;251;1439;-46
2021/11/03 03:38:22;;;;;;;;;;;20.60;46.60;;;;;;474658;251;2130;-46
2021/11/03 03:40:23;;;;;;;;;;;20.60;46.60;;;;;;474621;251;1541;-46
2021/11/03 03:42:25;;;;;;;;;;;20.50;46.60;;;;;;474161;251;1181;-45
2021/11/03 03:44:26;;;;;;;;;;;20.50;46.70;;;;;;474154;251;1281;-46
2021/11/03 03:46:27;;;;;;;;;;;20.60;46.60;;;;;;474201;251;1515;-46
2021/11/03 03:48:29;;;;;;;;;;;20.60;46.60;;;;;;474668;251;1048;-45
2021/11/03 03:50:30;;;;;;;;;;;20.60;46.60;;;;;;474646;251;1372;-46
2021/11/03 03:52:31;;;;;;;;;;;20.60;46.60;;;;;;474187;251;1089;-46
2021/11/03 03:54:32;;;;;;;;;;;20.50;46.60;;;;;;474265;251;1081;-46
2021/11/03 03:56:34;;;;;;;;;;;20.60;46.60;;;;;;474106;251;1171;-46
2021/11/03 03:58:36;;;;;;;;;;;20.50;46.60;;;;;;474635;251;2189;-46
2021/11/03 04:00:37;;;;;;;;;;;20.50;46.60;;;;;;474211;251;1215;-46
2021/11/03 04:02:38;;;;;;;;;;;20.60;46.60;;;;;;474479;251;1197;-46
2021/11/03 04:04:39;;;;;;;;;;;20.60;46.60;;;;;;474500;251;1039;-46
2021/11/03 04:06:41;;;;;;;;;;;20.50;46.50;;;;;;474152;251;1657;-46
2021/11/03 04:08:42;;;;;;;;;;;20.60;46.50;;;;;;474620;251;1072;-46
2021/11/03 04:10:43;;;;;;;;;;;20.60;46.50;;;;;;474347;251;1185;-46
2021/11/03 04:12:45;;;;;;;;;;;20.50;46.50;;;;;;474089;251;1623;-45
2021/11/03 04:14:46;;;;;;;;;;;20.50;46.50;;;;;;474324;251;1414;-46
2021/11/03 04:16:47;;;;;;;;;;;20.50;46.60;;;;;;474350;251;1383;-46
2021/11/03 04:18:49;;;;;;;;;;;20.50;46.60;;;;;;474672;251;2196;-46
2021/11/03 04:20:50;;;;;;;;;;;20.50;46.60;;;;;;474229;251;1393;-46
2021/11/03 04:22:51;;;;;;;;;;;20.50;46.70;;;;;;474273;251;1370;-46
2021/11/03 04:24:53;;;;;;;;;;;20.50;46.60;;;;;;474297;251;1046;-46
2021/11/03 04:26:54;;;;;;;;;;;20.60;46.50;;;;;;474252;251;1297;-46
2021/11/03 04:28:55;;;;;;;;;;;20.60;46.60;;;;;;474576;251;1055;-46
2021/11/03 04:30:57;;;;;;;;;;;20.50;46.60;;;;;;474122;251;1201;-46
2021/11/03 04:32:58;;;;;;;;;;;20.50;46.50;;;;;;474649;251;1340;-46
2021/11/03 04:34:59;;;;;;;;;;;20.60;46.60;;;;;;474279;251;1100;-46
2021/11/03 04:37:01;;;;;;;;;;;20.50;46.40;;;;;;474499;251;2204;-46
2021/11/03 04:39:02;;;;;;;;;;;20.60;46.50;;;;;;474609;251;1080;-46
2021/11/03 04:41:03;;;;;;;;;;;20.50;46.50;;;;;;474198;251;1462;-45
2021/11/03 04:43:05;;;;;;;;;;;20.50;46.50;;;;;;474608;251;1288;-46
2021/11/03 04:45:06;;;;;;;;;;;20.50;46.50;;;;;;474536;251;1204;-45
2021/11/03 04:47:07;;;;;;;;;;;20.50;46.50;;;;;;474210;251;1533;-45
2021/11/03 04:49:09;;;;;;;;;;;20.50;46.60;;;;;;474403;251;1102;-46
2021/11/03 04:51:10;;;;;;;;;;;20.50;46.50;;;;;;474583;246;1261;-46
2021/11/03 04:53:11;;;;;;;;;;;20.50;46.50;;;;;;474516;251;1197;-46
2021/11/03 04:55:12;;;;;;;;;;;20.50;46.40;;;;;;474257;251;1081;-46
2021/11/03 04:57:14;;;;;;;;;;;20.50;46.40;;;;;;474326;251;2197;-46
2021/11/03 04:59:15;;;;;;;;;;;20.50;46.40;;;;;;474262;251;1033;-46
2021/11/03 05:01:20;;;;;;;;;;;20.50;46.40;;;;;;474248;251;1378;-46
2021/11/03 05:03:18;;;;;;;;;;;20.50;46.40;;;;;;474399;251;2294;-46
2021/11/03 05:05:20;;;;;;;;;;;20.50;46.50;;;;;;474710;251;1065;-46
2021/11/03 05:07:21;;;;;;;;;;;20.60;46.50;;;;;;474392;251;1265;-46
2021/11/03 05:09:22;;;;;;;;;;;20.60;46.40;;;;;;474117;251;1110;-46
2021/11/03 05:11:24;;;;;;;;;;;20.60;46.40;;;;;;474180;251;1278;-46
2021/11/03 05:13:25;;;;;;;;;;;20.50;46.30;;;;;;474354;251;1047;-46
2021/11/03 05:15:26;;;;;;;;;;;20.60;46.40;;;;;;474487;251;1348;-46
2021/11/03 05:17:28;;;;;;;;;;;20.60;46.30;;;;;;474092;251;2206;-46
2021/11/03 05:19:29;;;;;;;;;;;20.60;46.30;;;;;;474464;251;1089;-46
2021/11/03 05:21:30;;;;;;;;;;;20.50;46.30;;;;;;474336;251;1437;-46
2021/11/03 05:23:32;;;;;;;;;;;20.50;46.30;;;;;;474375;251;993;-46
2021/11/03 05:25:33;;;;;;;;;;;20.60;46.40;;;;;;474520;251;1384;-46
2021/11/03 05:27:34;;;;;;;;;;;20.50;46.40;;;;;;474103;251;1499;-46
2021/11/03 05:29:36;;;;;;;;;;;20.60;46.30;;;;;;474412;251;1056;-46
2021/11/03 05:31:37;;;;;;;;;;;20.50;46.30;;;;;;474243;251;1323;-46
2021/11/03 05:33:38;;;;;;;;;;;20.50;46.30;;;;;;474073;251;1154;-46
2021/11/03 05:35:39;;;;;;;;;;;20.50;46.30;;;;;;474512;251;1108;-45
2021/11/03 05:37:41;;;;;;;;;;;20.50;46.30;;;;;;474066;251;2134;-46
2021/11/03 05:39:42;;;;;;;;;;;20.50;46.40;;;;;;474135;251;1076;-46
2021/11/03 05:41:43;;;;;;;;;;;20.50;46.30;;;;;;473995;251;1380;-46
2021/11/03 05:43:45;;;;;;;;;;;20.50;46.30;;;;;;474189;251;1093;-46
2021/11/03 05:45:46;;;;;;;;;;;20.50;46.30;;;;;;474464;244;1383;-46
2021/11/03 05:47:48;;;;;;;;;;;20.50;46.40;;;;;;474185;251;1051;-46
2021/11/03 05:49:49;;;;;;;;;;;20.50;46.30;;;;;;474121;251;1130;-46
2021/11/03 05:51:50;;;;;;;;;;;20.50;46.30;;;;;;474261;244;1299;-46
2021/11/03 05:53:52;;;;;;;;;;;20.60;46.30;;;;;;474197;251;1066;-45
2021/11/03 05:55:53;;;;;;;;;;;20.60;46.30;;;;;;474092;251;1343;-46
2021/11/03 05:57:55;;;;;;;;;;;20.50;46.30;;;;;;474317;251;2216;-45
2021/11/03 05:59:56;;;;;;;;;;;20.60;46.20;;;;;;474004;251;2467;-46
2021/11/03 06:01:57;;;;;;;;;;;20.60;46.30;;;;;;474119;251;1829;-46
2021/11/03 06:03:58;;;;;;;;;;;20.50;46.20;;;;;;474033;251;1070;-46
2021/11/03 06:06:00;;;;;;;;;;;20.50;46.10;;;;;;473960;251;1082;-46
2021/11/03 06:08:01;;;;;;;;;;;20.50;46.20;;;;;;473897;251;1174;-46
2021/11/03 06:10:03;;;;;;;;;;;20.50;46.20;;;;;;474002;251;1074;-46
2021/11/03 06:12:05;;;;;;;;;;;20.50;46.20;;;;;;473879;251;1220;-46
2021/11/03 06:14:06;;;;;;;;;;;20.50;46.30;;;;;;473967;251;1362;-46
2021/11/03 06:16:07;;;;;;;;;;;20.50;46.20;;;;;;474192;251;1260;-46
2021/11/03 06:18:09;;;;;;;;;;;20.50;46.30;;;;;;474001;251;2185;-45
2021/11/03 06:20:10;;;;;;;;;;;20.50;46.30;;;;;;474049;251;1281;-46
2021/11/03 06:22:11;;;;;;;;;;;20.50;46.30;;;;;;474229;251;1317;-46
2021/11/03 06:24:13;;;;;;;;;;;20.50;46.30;;;;;;474131;251;1133;-45
2021/11/03 06:26:14;;;;;;;;;;;20.50;46.20;;;;;;473886;251;1308;-46
2021/11/03 06:28:16;;;;;;;;;;;20.50;46.20;;;;;;473942;251;1238;-46
2021/11/03 06:30:17;;;;;;;;;;;20.50;46.20;;;;;;473936;251;1067;-45
2021/11/03 06:32:18;;;;;;;;;;;20.50;46.10;;;;;;473893;251;1552;-46
2021/11/03 06:34:19;;;;;;;;;;;20.50;46.20;;;;;;473950;251;1065;-46
2021/11/03 06:36:21;;;;;;;;;;;20.50;46.10;;;;;;473927;251;1308;-46
2021/11/03 06:38:22;;;;;;;;;;;20.50;46.10;;;;;;473850;251;2189;-46
2021/11/03 06:40:23;;;;;;;;;;;20.60;46.10;;;;;;473895;251;1073;-46
2021/11/03 06:42:25;;;;;;;;;;;20.60;46.10;;;;;;473906;251;1337;-46
2021/11/03 06:44:26;;;;;;;;;;;20.60;46.10;;;;;;473759;251;1086;-46
2021/11/03 06:46:27;;;;;;;;;;;20.60;46.10;;;;;;473708;251;1327;-46
2021/11/03 06:48:29;;;;;;;;;;;20.50;46.10;;;;;;473893;251;1147;-46
2021/11/03 06:50:30;;;;;;;;;;;20.60;46.20;;;;;;473807;251;1068;-46
2021/11/03 06:52:32;;;;;;;;;;;20.50;46.10;;;;;;473972;251;1246;-46
2021/11/03 06:54:33;;;;;;;;;;;20.60;46.10;;;;;;473841;251;1084;-46
2021/11/03 06:56:35;;;;;;;;;;;20.60;46.00;;;;;;473709;245;1308;-46
2021/11/03 06:58:37;;;;;;;;;;;20.60;46.10;;;;;;473846;251;2146;-46
2021/11/03 07:00:37;;;;;;;;;;;20.50;46.10;;;;;;473795;251;2476;-46
2021/11/03 07:02:39;;;;;;;;;;;20.50;46.10;;;;;;473937;251;1129;-46
2021/11/03 07:04:40;;;;;;;;;;;20.50;46.10;;;;;;473850;251;1159;-46
2021/11/03 07:06:41;;;;;;;;;;;20.50;46.10;;;;;;473715;244;1343;-46
2021/11/03 07:08:43;;;;;;;;;;;20.50;46.10;;;;;;473757;251;1145;-46
2021/11/03 07:10:44;;;;;;;;;;;20.50;46.10;;;;;;473895;251;1391;-45
2021/11/03 07:12:45;;;;;;;;;;;20.60;46.10;;;;;;473756;251;1124;-45
2021/11/03 07:14:47;;;;;;;;;;;20.50;46.00;;;;;;473782;251;1240;-46
2021/11/03 07:16:48;;;;;;;;;;;20.50;46.00;;;;;;473715;251;1215;-45
2021/11/03 07:18:50;;;;;;;;;;;20.50;46.00;;;;;;473831;251;2190;-46
2021/11/03 07:20:51;;;;;;;;;;;20.50;45.90;;;;;;473609;251;1328;-46
2021/11/03 07:22:52;;;;;;;;;;;20.60;45.90;;;;;;473693;251;1216;-47
2021/11/03 07:24:54;;;;;;;;;;;20.50;46.00;;;;;;473672;251;1308;-46
2021/11/03 07:26:55;;;;;;;;;;;20.50;46.00;;;;;;473616;251;1266;-46
2021/11/03 07:28:56;;;;;;;;;;;20.50;45.90;;;;;;473661;251;1187;-46
2021/11/03 07:30:58;;;;;;;;;;;20.60;45.90;;;;;;473698;251;1223;-46
2021/11/03 07:32:59;;;;;;;;;;;20.50;46.00;;;;;;473512;251;1257;-46
2021/11/03 07:35:00;;;;;;;;;;;20.50;46.00;;;;;;473477;251;1329;-45
2021/11/03 07:37:02;;;;;;;;;;;20.50;46.00;;;;;;473471;251;1170;-46
2021/11/03 07:39:03;;;;;;;;;;;20.60;46.00;;;;;;473456;251;2133;-46
2021/11/03 07:41:04;;;;;;;;;;;20.50;46.00;;;;;;473320;243;1289;-46
2021/11/03 07:43:07;;;;;;;;;;;20.50;46.00;;;;;;473481;251;1406;-46
2021/11/03 07:45:08;;;;;;;;;;;20.50;45.90;;;;;;473872;251;1909;-45
2021/11/03 07:47:10;;;;;;;;;;;20.50;46.00;;;;;;473610;251;1216;-46
2021/11/03 07:49:11;;;;;;;;;;;20.50;45.90;;;;;;473402;251;1235;-46
2021/11/03 07:51:13;;;;;;;;;;;20.50;45.90;;;;;;473739;251;1453;-46
2021/11/03 07:53:14;;;;;;;;;;;20.60;46.00;;;;;;473637;251;1170;-46
2021/11/03 07:55:15;;;;;;;;;;;20.50;45.90;;;;;;473269;251;1081;-46
2021/11/03 07:57:17;;;;;;;;;;;20.60;46.00;;;;;;473704;251;1217;-46
2021/11/03 07:59:18;;;;;;;;;;;20.60;45.90;;;;;;474179;251;2208;-45
2021/11/03 08:01:19;;;;;;;;;;;20.50;45.80;;;;;;473524;251;1290;-46
2021/11/03 08:03:21;;;;;;;;;;;20.50;45.90;;;;;;473847;251;1197;-46
2021/11/03 08:05:27;;;;;;;;;;;20.50;46.00;;;;;;474213;251;1128;-46
2021/11/03 08:07:24;;;;;;;;;;;20.50;45.90;;;;;;473981;251;2640;-46
2021/11/03 08:09:26;;;;;;;;;;;20.50;45.90;;;;;;473464;251;1112;-46
2021/11/03 08:11:29;;;;;;;;;;;20.60;45.90;;;;;;473435;251;1142;-46
2021/11/03 08:13:31;;;;;;;;;;;20.50;45.80;;;;;;473325;251;1921;-45
2021/11/03 08:15:29;;;;;;;;;;;20.60;45.80;;;;;;473034;251;1511;-46
2021/11/03 08:17:32;;;;;;;;;;;20.50;45.80;;;;;;473355;251;1078;-46
2021/11/03 08:19:34;;;;;;;;;;;20.50;45.80;;;;;;473353;251;2435;-46
2021/11/03 08:21:36;;;;;;;;;;;20.50;45.80;;;;;;474143;251;1106;-46
2021/11/03 08:23:37;;;;;;;;;;;20.50;45.80;;;;;;473689;251;884;-46
2021/11/03 08:25:38;;;;;;;;;;;20.50;45.80;;;;;;474121;251;1142;-46
2021/11/03 08:27:40;;;;;;;;;;;20.50;45.80;;;;;;473744;251;907;-46
2021/11/03 08:29:41;;;;;;;;;;;20.50;45.80;;;;;;474203;251;1022;-45
2021/11/03 08:31:43;;;;;;;;;;;20.60;45.80;;;;;;473495;251;1129;-46
2021/11/03 08:33:44;;;;;;;;;;;20.60;45.80;;;;;;473897;244;1331;-46
2021/11/03 08:35:45;;;;;;;;;;;20.50;45.80;;;;;;473220;251;1191;-46
2021/11/03 08:37:47;;;;;;;;;;;20.50;45.80;;;;;;473398;251;1225;-45
2021/11/03 08:39:48;;;;;;;;;;;20.50;45.80;;;;;;473271;251;2194;-46
2021/11/03 08:41:49;;;;;;;;;;;20.50;45.90;;;;;;473316;251;1254;-46
2021/11/03 08:43:51;;;;;;;;;;;20.50;45.80;;;;;;473421;251;1502;-46
2021/11/03 08:45:52;;;;;;;;;;;20.60;45.80;;;;;;473417;251;1404;-46
2021/11/03 08:47:53;;;;;;;;;;;20.50;45.80;;;;;;474142;251;1243;-46
2021/11/03 08:49:55;;;;;;;;;;;20.50;45.80;;;;;;473534;251;1186;-46
2021/11/03 08:51:56;;;;;;;;;;;20.50;45.80;;;;;;473451;251;1261;-46
2021/11/03 08:53:57;;;;;;;;;;;20.60;45.80;;;;;;473905;251;1210;-46
2021/11/03 08:55:59;;;;;;;;;;;20.50;45.80;;;;;;473437;251;1132;-46
2021/11/03 08:58:00;;;;;;;;;;;20.60;45.80;;;;;;474219;251;1077;-46
2021/11/03 09:00:02;;;;;;;;;;;20.60;45.80;;;;;;473364;251;2181;-45
2021/11/03 09:02:03;;;;;;;;;;;20.60;45.80;;;;;;473526;251;2505;-46
2021/11/03 09:04:04;;;;;;;;;;;20.60;45.80;;;;;;473315;251;1600;-46
2021/11/03 09:06:05;;;;;;;;;;;20.60;45.80;;;;;;473041;251;1250;-45
2021/11/03 09:08:07;;;;;;;;;;;20.50;45.80;;;;;;473846;251;1099;-46
2021/11/03 09:10:08;;;;;;;;;;;20.60;45.80;;;;;;473182;251;1192;-46
2021/11/03 09:12:09;;;;;;;;;;;20.60;45.80;;;;;;473122;251;1303;-46
2021/11/03 09:14:11;;;;;;;;;;;20.60;45.80;;;;;;473214;251;1254;-46
2021/11/03 09:16:12;;;;;;;;;;;20.60;45.80;;;;;;473194;251;1251;-46
2021/11/03 09:18:13;;;;;;;;;;;20.50;45.80;;;;;;473275;251;1379;-46
2021/11/03 09:20:15;;;;;;;;;;;20.50;45.80;;;;;;473417;251;2208;-46
2021/11/03 09:22:16;;;;;;;;;;;20.60;45.80;;;;;;473329;251;1315;-46
2021/11/03 09:24:18;;;;;;;;;;;20.60;45.80;;;;;;473466;251;1223;-46
2021/11/03 09:26:19;;;;;;;;;;;20.50;45.80;;;;;;473337;251;1341;-45
2021/11/03 09:28:20;;;;;;;;;;;20.60;45.80;;;;;;473381;251;1081;-46
2021/11/03 09:30:23;;;;;;;;;;;20.60;45.80;;;;;;473115;251;1226;-45
2021/11/03 09:32:24;;;;;;;;;;;20.60;45.70;;;;;;473091;251;1851;-46
2021/11/03 09:34:25;;;;;;;;;;;20.60;45.70;;;;;;473747;251;1293;-45
2021/11/03 09:36:26;;;;;;;;;;;20.60;45.70;;;;;;473570;251;1134;-46
2021/11/03 09:38:28;;;;;;;;;;;20.60;45.80;;;;;;474227;251;1089;-46
2021/11/03 09:40:29;;;;;;;;;;;20.60;45.80;;;;;;473440;251;2193;-46
2021/11/03 09:42:30;;;;;;;;;;;20.60;45.80;;;;;;473473;251;1414;-46
2021/11/03 09:44:32;;;;;;;;;;;20.60;45.80;;;;;;473230;251;1193;-46
2021/11/03 09:46:33;;;;;;;;;;;20.60;45.80;;;;;;473492;251;1219;-46
2021/11/03 09:48:34;;;;;;;;;;;20.50;45.80;;;;;;474011;251;1127;-46
2021/11/03 09:50:36;;;;;;;;;;;20.60;45.80;;;;;;473172;251;1096;-46
2021/11/03 09:52:37;;;;;;;;;;;20.50;45.80;;;;;;473109;251;1216;-45
2021/11/03 09:54:38;;;;;;;;;;;20.60;45.80;;;;;;473213;251;1261;-46
2021/11/03 09:56:40;;;;;;;;;;;20.60;45.80;;;;;;473148;251;1238;-46
2021/11/03 09:58:41;;;;;;;;;;;20.60;45.80;;;;;;473268;251;1204;-45
2021/11/03 10:00:42;;;;;;;;;;;20.50;45.80;;;;;;473177;251;2183;-46
2021/11/03 10:02:44;;;;;;;;;;;20.50;45.80;;;;;;473246;251;1407;-46
2021/11/03 10:04:45;;;;;;;;;;;20.50;45.80;;;;;;473585;251;1452;-46
2021/11/03 10:06:46;;;;;;;;;;;20.60;45.80;;;;;;473346;248;1300;-46
2021/11/03 10:08:48;;;;;;;;;;;20.50;45.80;;;;;;473382;251;1214;-46
2021/11/03 10:10:49;;;;;;;;;;;20.50;45.80;;;;;;473435;251;1248;-46
2021/11/03 10:12:50;;;;;;;;;;;20.60;45.80;;;;;;474239;251;1188;-46
2021/11/03 10:14:51;;;;;;;;;;;20.60;45.80;;;;;;474274;251;840;-46
2021/11/03 10:16:54;;;;;;;;;;;20.50;45.80;;;;;;474223;251;1070;-46
2021/11/03 10:18:54;;;;;;;;;;;20.60;45.80;;;;;;473813;251;2171;-45
2021/11/03 10:20:55;;;;;;;;;;;20.50;45.80;;;;;;473709;251;1223;-46
2021/11/03 10:22:57;;;;;;;;;;;20.50;45.80;;;;;;474263;244;1164;-46
2021/11/03 10:25:00;;;;;;;;;;;20.60;45.80;;;;;;473204;251;1099;-46
2021/11/03 10:27:01;;;;;;;;;;;20.60;45.80;;;;;;473645;251;1112;-46
2021/11/03 10:29:03;;;;;;;;;;;20.60;45.70;;;;;;474136;251;840;-46
2021/11/03 10:31:06;;;;;;;;;;;20.60;45.80;;;;;;473544;251;1070;-46
2021/11/03 10:33:05;;;;;;;;;;;20.50;45.80;;;;;;473567;251;2370;-46
2021/11/03 10:35:07;;;;;;;;;;;20.60;45.80;;;;;;473562;251;1336;-46
2021/11/03 10:37:08;;;;;;;;;;;20.60;45.80;;;;;;473514;251;1244;-46
2021/11/03 10:39:09;;;;;;;;;;;20.60;45.80;;;;;;473808;251;2189;-45
2021/11/03 10:41:11;;;;;;;;;;;20.60;45.80;;;;;;473691;251;1147;-46
2021/11/03 10:43:12;;;;;;;;;;;20.50;45.80;;;;;;474198;251;1040;-48
2021/11/03 10:45:13;;;;;;;;;;;20.60;45.80;;;;;;473616;251;1213;-48
2021/11/03 10:47:15;;;;;;;;;;;20.60;45.70;;;;;;473922;251;1379;-46
2021/11/03 10:51:38;;;;;;;;;;;20.60;45.80;;;;;;473428;251;1301;-46
2021/11/03 10:53:38;;;;;;;;;;;20.60;45.80;;;;;;474000;251;1976;-46
2021/11/03 10:55:40;;;;;;;;;;;20.60;45.80;;;;;;473467;251;1351;-46
2021/11/03 10:57:41;;;;;;;;;;;20.60;45.80;;;;;;473368;251;1268;-46
2021/11/03 10:59:42;;;;;;;;;;;20.50;45.80;;;;;;473111;251;2134;-46
2021/11/03 11:01:45;;;;;;;;;;;20.60;45.80;;;;;;473276;251;1214;-46
2021/11/03 11:03:46;;;;;;;;;;;20.60;45.80;;;;;;472975;251;1409;-46
2021/11/03 11:05:48;;;;;;;;;;;20.50;45.80;;;;;;473328;248;1419;-46
2021/11/03 11:07:49;;;;;;;;;;;20.50;45.80;;;;;;473350;251;1337;-45
2021/11/03 11:09:50;;;;;;;;;;;20.60;45.80;;;;;;473276;251;1245;-46
2021/11/03 11:11:54;;;;;;;;;;;20.60;45.80;;;;;;473368;251;1214;-45
2021/11/03 11:13:57;;;;;;;;;;;20.50;45.80;;;;;;474260;251;2038;-46
2021/11/03 11:15:58;;;;;;;;;;;20.60;45.80;;;;;;473375;251;1119;-46
2021/11/03 11:17:59;;;;;;;;;;;20.60;45.80;;;;;;473476;251;1223;-46
2021/11/03 11:20:00;;;;;;;;;;;20.60;45.80;;;;;;473403;251;2193;-46
2021/11/03 11:22:02;;;;;;;;;;;20.60;45.80;;;;;;473400;251;1341;-46
2021/11/03 11:24:03;;;;;;;;;;;20.60;45.80;;;;;;473420;251;1111;-46
2021/11/03 11:26:04;;;;;;;;;;;20.50;45.80;;;;;;473137;251;1769;-46
2021/11/03 11:28:06;;;;;;;;;;;20.60;45.80;;;;;;473301;251;1306;-46
2021/11/03 11:30:07;;;;;;;;;;;20.60;45.80;;;;;;473603;251;1200;-46
2021/11/03 11:32:08;;;;;;;;;;;20.50;45.80;;;;;;473546;251;1390;-46
2021/11/03 11:34:10;;;;;;;;;;;20.50;45.80;;;;;;473474;251;1099;-46
2021/11/03 11:36:11;;;;;;;;;;;20.50;45.80;;;;;;473456;251;1354;-46
2021/11/03 11:38:13;;;;;;;;;;;20.50;45.80;;;;;;473530;251;1191;-46
2021/11/03 11:40:14;;;;;;;;;;;20.60;45.80;;;;;;473414;251;2189;-46
2021/11/03 11:42:15;;;;;;;;;;;20.50;45.80;;;;;;473459;248;1147;-45
2021/11/03 11:44:16;;;;;;;;;;;20.50;45.80;;;;;;473429;251;1088;-45
2021/11/03 11:46:19;;;;;;;;;;;20.50;45.80;;;;;;473401;251;1315;-45
2021/11/03 11:48:19;;;;;;;;;;;20.50;45.80;;;;;;474209;251;2146;-45
2021/11/03 11:50:21;;;;;;;;;;;20.50;45.90;;;;;;474227;251;862;-46
2021/11/03 11:52:22;;;;;;;;;;;20.60;45.80;;;;;;473855;251;1115;-46
2021/11/03 11:54:24;;;;;;;;;;;20.50;45.80;;;;;;474110;251;830;-46
2021/11/03 11:56:25;;;;;;;;;;;20.50;45.80;;;;;;473584;251;1228;-46
2021/11/03 11:58:27;;;;;;;;;;;20.50;45.90;;;;;;473533;251;1091;-45
2021/11/03 12:00:28;;;;;;;;;;;20.50;45.90;;;;;;473296;251;2192;-46